Time;durP1;ratioP1;P1;durP2;ratioP2;P2;SDS_P1;SDS_P2;PMS_P1;PMS_P2;Temp;Humidity;BMP_temperature;BMP_pressure;BME280_temperature;BME280_humidity;BME280_pressure;Samples;Min_cycle;Max_cycle;Signal;HPM_P1;HPM_P2
2023/01/22 00:02:02;;;;;;;11.23;8.40;;;2.20;99.90;;;;;;5032994;28;20241;-63
2023/01/22 00:04:29;;;;;;;11.40;9.03;;;2.30;99.90;;;;;;5033170;28;20213;-64
2023/01/22 00:06:55;;;;;;;13.60;9.33;;;2.40;99.90;;;;;;5033269;28;20213;-63
2023/01/22 00:09:22;;;;;;;12.67;9.53;;;2.50;99.90;;;;;;5032841;28;20772;-63
2023/01/22 00:11:49;;;;;;;11.67;9.30;;;2.60;99.90;;;;;;5033196;28;20658;-63
2023/01/22 00:14:18;;;;;;;12.60;9.57;;;2.70;99.90;;;;;;5033587;28;20249;-63
2023/01/22 00:16:44;;;;;;;11.87;8.73;;;2.80;99.90;;;;;;5033039;28;20575;-64
2023/01/22 00:19:11;;;;;;;12.77;9.87;;;2.80;99.90;;;;;;5032892;28;20381;-63
2023/01/22 00:21:38;;;;;;;11.50;9.47;;;2.90;99.90;;;;;;5032805;28;20264;-63
2023/01/22 00:24:05;;;;;;;13.17;9.60;;;2.80;99.90;;;;;;5033112;28;20604;-63
2023/01/22 00:26:31;;;;;;;15.53;9.87;;;2.80;99.90;;;;;;5032785;28;20276;-64
2023/01/22 00:28:58;;;;;;;12.67;9.67;;;2.80;99.90;;;;;;5032753;28;20234;-63
2023/01/22 00:31:26;;;;;;;12.00;9.20;;;2.80;99.90;;;;;;5032369;28;20210;-64
2023/01/22 00:33:53;;;;;;;11.93;9.27;;;2.80;99.90;;;;;;5032580;28;20363;-64
2023/01/22 00:36:21;;;;;;;12.70;9.53;;;2.80;99.90;;;;;;5032418;28;20210;-64
2023/01/22 00:38:48;;;;;;;13.13;10.00;;;2.60;99.90;;;;;;5032631;28;20206;-64
2023/01/22 00:41:16;;;;;;;13.07;9.73;;;2.40;99.90;;;;;;5032289;28;20210;-64
2023/01/22 00:43:43;;;;;;;12.90;9.70;;;2.40;99.90;;;;;;5032606;28;20226;-63
2023/01/22 00:46:12;;;;;;;16.10;10.20;;;2.50;99.90;;;;;;5032432;28;20252;-64
2023/01/22 00:48:41;;;;;;;13.00;10.37;;;2.50;99.90;;;;;;5032397;28;20202;-64
2023/01/22 00:51:08;;;;;;;13.00;9.83;;;2.50;99.90;;;;;;5032381;28;20275;-65
2023/01/22 00:53:35;;;;;;;12.77;9.63;;;2.50;99.90;;;;;;5044640;28;20198;-63
2023/01/22 00:56:03;;;;;;;13.20;10.53;;;2.40;99.90;;;;;;5044945;28;20205;-63
2023/01/22 00:58:30;;;;;;;13.20;9.80;;;2.30;99.90;;;;;;5039903;28;20214;-64
2023/01/22 01:00:57;;;;;;;14.27;10.00;;;2.10;99.90;;;;;;5037883;28;20558;-64
2023/01/22 01:03:26;;;;;;;14.17;9.70;;;2.00;99.90;;;;;;5033590;28;20229;-65
2023/01/22 01:05:55;;;;;;;13.53;10.17;;;2.00;99.90;;;;;;5032452;28;20702;-64
2023/01/22 01:08:22;;;;;;;13.30;10.10;;;2.30;99.90;;;;;;5032409;28;20212;-64
2023/01/22 01:10:53;;;;;;;12.43;9.87;;;2.50;99.90;;;;;;5031920;28;20775;-64
2023/01/22 01:13:20;;;;;;;13.77;10.67;;;2.60;99.90;;;;;;5031947;28;20206;-64
2023/01/22 01:15:47;;;;;;;11.53;9.17;;;2.60;99.90;;;;;;5031119;28;20678;-64
2023/01/22 01:18:13;;;;;;;13.90;10.33;;;2.70;99.90;;;;;;5032098;28;20287;-63
2023/01/22 01:20:40;;;;;;;13.63;10.60;;;2.80;99.90;;;;;;5031757;28;20230;-64
2023/01/22 01:23:08;;;;;;;14.97;10.30;;;2.90;99.90;;;;;;5031650;28;20229;-63
2023/01/22 01:25:35;;;;;;;12.97;10.10;;;3.00;99.90;;;;;;5031808;28;20552;-63
2023/01/22 01:28:04;;;;;;;14.93;10.30;;;3.10;99.90;;;;;;5031801;28;20580;-63
2023/01/22 01:30:30;;;;;;;14.90;10.50;;;3.20;99.90;;;;;;5031444;28;20234;-65
2023/01/22 01:32:58;;;;;;;13.63;10.47;;;3.20;99.90;;;;;;5031938;28;20260;-64
2023/01/22 01:35:24;;;;;;;14.63;10.13;;;3.20;99.90;;;;;;5032063;28;20206;-64
2023/01/22 01:37:52;;;;;;;14.20;10.77;;;3.30;99.90;;;;;;5031871;28;20213;-63
2023/01/22 01:40:20;;;;;;;13.43;10.83;;;3.40;99.90;;;;;;5031439;28;20222;-63
2023/01/22 01:42:47;;;;;;;15.73;11.07;;;3.40;99.90;;;;;;5031428;28;20276;-64
2023/01/22 01:45:26;;;;;;;15.03;11.07;;;3.50;99.90;;;;;;5031924;28;20272;-63
2023/01/22 01:47:57;;;;;;;13.60;10.33;;;3.50;99.90;;;;;;5031991;28;20232;-63
2023/01/22 01:50:26;;;;;;;16.13;11.40;;;3.50;99.90;;;;;;5056933;22;20233;-59
2023/01/22 01:52:53;;;;;;;14.43;11.00;;;3.50;99.90;;;;;;5033989;28;20650;-59
2023/01/22 01:55:27;;;;;;;14.83;10.07;;;3.40;99.90;;;;;;5033264;28;20213;-58
2023/01/22 01:57:55;;;;;;;14.13;10.37;;;3.40;99.90;;;;;;5033571;28;20218;-58
2023/01/22 02:00:22;;;;;;;14.53;10.87;;;3.30;99.90;;;;;;5034085;28;20340;-59
2023/01/22 02:02:49;;;;;;;14.70;10.60;;;3.30;99.90;;;;;;5033891;28;20267;-58
2023/01/22 02:05:19;;;;;;;13.13;10.50;;;3.40;99.90;;;;;;5033530;28;20210;-58
2023/01/22 02:07:46;;;;;;;13.00;10.00;;;3.50;99.90;;;;;;5033083;28;20575;-57
2023/01/22 02:10:13;;;;;;;15.50;10.40;;;3.50;99.90;;;;;;5032059;28;20237;-57
2023/01/22 02:12:41;;;;;;;13.63;10.17;;;3.40;99.90;;;;;;5032183;28;20198;-58
2023/01/22 02:15:09;;;;;;;12.97;10.53;;;3.50;99.90;;;;;;5032183;28;20682;-58
2023/01/22 02:17:36;;;;;;;13.43;10.13;;;3.50;99.90;;;;;;5031819;28;20214;-58
2023/01/22 02:20:03;;;;;;;14.20;10.43;;;3.50;99.90;;;;;;5031828;28;20646;-57
2023/01/22 02:22:35;;;;;;;13.67;10.40;;;3.50;99.90;;;;;;5031959;28;20372;-57
2023/01/22 02:25:03;;;;;;;13.97;10.40;;;3.40;99.90;;;;;;5032046;28;20214;-57
2023/01/22 02:27:30;;;;;;;14.23;10.90;;;3.30;99.90;;;;;;5035548;28;20206;-58
2023/01/22 02:29:56;;;;;;;14.30;10.27;;;3.40;99.90;;;;;;5035616;28;20234;-58
2023/01/22 02:32:23;;;;;;;15.33;10.10;;;3.30;99.90;;;;;;5036108;28;20260;-58
2023/01/22 02:34:50;;;;;;;14.17;10.47;;;3.30;99.90;;;;;;5035782;28;20202;-57
2023/01/22 02:37:17;;;;;;;12.53;9.83;;;3.40;99.90;;;;;;5036414;28;20556;-58
2023/01/22 02:39:45;;;;;;;15.23;10.07;;;3.50;99.90;;;;;;5035772;28;20226;-57
2023/01/22 02:42:12;;;;;;;13.03;10.07;;;3.50;99.90;;;;;;5036302;28;20214;-58
2023/01/22 02:44:39;;;;;;;13.27;9.93;;;3.50;99.90;;;;;;5035397;28;20236;-57
2023/01/22 02:47:06;;;;;;;12.83;9.53;;;3.60;99.90;;;;;;5035181;28;20610;-58
2023/01/22 02:49:33;;;;;;;12.43;10.27;;;3.50;99.90;;;;;;5034342;28;20241;-57
2023/01/22 02:51:59;;;;;;;12.97;10.10;;;3.60;99.90;;;;;;5034576;28;20209;-57
2023/01/22 02:54:26;;;;;;;14.33;9.70;;;3.60;99.90;;;;;;5034716;28;20651;-58
2023/01/22 02:56:55;;;;;;;12.57;10.03;;;3.60;99.90;;;;;;5034539;28;20214;-58
2023/01/22 02:59:22;;;;;;;13.53;10.50;;;3.50;99.90;;;;;;5034540;28;20272;-58
2023/01/22 03:01:49;;;;;;;14.20;10.40;;;3.60;99.90;;;;;;5035124;28;20206;-58
2023/01/22 03:04:16;;;;;;;13.37;10.13;;;3.60;99.90;;;;;;5035558;28;20222;-58
2023/01/22 03:06:45;;;;;;;12.67;10.13;;;3.60;99.90;;;;;;5035016;28;20619;-58
2023/01/22 03:09:13;;;;;;;13.57;10.17;;;3.50;99.90;;;;;;5034678;28;20210;-57
2023/01/22 03:11:41;;;;;;;13.63;9.70;;;3.60;99.90;;;;;;5034888;28;20206;-57
2023/01/22 03:22:24;;;;;;;13.17;9.67;;;3.20;99.90;;;;;;5034342;28;20228;-57
2023/01/22 03:24:51;;;;;;;14.73;10.67;;;3.00;99.90;;;;;;5033834;28;20234;-57
2023/01/22 03:27:20;;;;;;;16.27;11.17;;;3.10;99.90;;;;;;5034122;28;20206;-57
2023/01/22 03:29:48;;;;;;;14.37;10.10;;;3.20;99.90;;;;;;5033749;28;20227;-58
2023/01/22 03:32:15;;;;;;;15.37;10.20;;;3.20;99.90;;;;;;5033961;28;20206;-57
2023/01/22 03:34:41;;;;;;;15.33;10.40;;;3.20;99.90;;;;;;5034228;28;20210;-57
2023/01/22 03:37:11;;;;;;;13.73;10.33;;;3.30;99.90;;;;;;5033076;28;20213;-57
2023/01/22 03:39:38;;;;;;;12.17;9.30;;;3.40;99.90;;;;;;5033580;28;20227;-58
2023/01/22 03:42:06;;;;;;;13.57;10.20;;;3.40;99.90;;;;;;5034079;28;20699;-57
2023/01/22 03:44:32;;;;;;;13.00;9.80;;;3.20;99.90;;;;;;5034186;28;20226;-58
2023/01/22 03:47:00;;;;;;;13.67;10.13;;;3.20;99.90;;;;;;5034316;28;20290;-57
2023/01/22 03:49:27;;;;;;;15.43;10.50;;;3.30;99.90;;;;;;4998117;28;1037346;-57
2023/01/22 03:51:54;;;;;;;14.03;10.07;;;3.40;99.90;;;;;;5035556;28;20209;-57
2023/01/22 03:54:21;;;;;;;12.30;9.43;;;3.40;99.90;;;;;;5034919;28;20206;-58
2023/01/22 03:56:47;;;;;;;12.47;9.97;;;3.40;99.90;;;;;;5035350;28;20207;-58
2023/01/22 03:59:14;;;;;;;12.43;9.67;;;3.50;99.90;;;;;;5035495;28;20349;-58
2023/01/22 04:01:41;;;;;;;12.90;9.77;;;3.60;99.90;;;;;;5034922;28;20233;-57
2023/01/22 04:04:09;;;;;;;13.63;10.10;;;3.60;99.90;;;;;;5034783;28;20249;-57
2023/01/22 04:06:35;;;;;;;13.00;9.93;;;3.70;99.90;;;;;;5034909;28;20206;-57
2023/01/22 04:09:02;;;;;;;13.47;9.63;;;3.70;99.90;;;;;;5034576;28;20586;-57
2023/01/22 04:11:29;;;;;;;14.07;9.50;;;3.80;99.90;;;;;;5035233;28;20206;-57
2023/01/22 04:13:56;;;;;;;12.87;9.50;;;3.80;99.90;;;;;;5034573;28;20578;-57
2023/01/22 04:16:22;;;;;;;12.87;9.43;;;3.80;99.90;;;;;;5034404;28;20704;-57
2023/01/22 04:18:49;;;;;;;13.20;9.93;;;3.80;99.90;;;;;;5034536;28;20206;-58
2023/01/22 04:21:17;;;;;;;12.97;9.80;;;3.80;99.90;;;;;;5033874;28;20238;-58
2023/01/22 04:23:44;;;;;;;13.63;9.43;;;3.90;99.90;;;;;;5033869;28;20705;-57
2023/01/22 04:26:11;;;;;;;14.40;9.43;;;3.90;99.90;;;;;;5034267;28;20214;-58
2023/01/22 04:28:37;;;;;;;12.80;9.27;;;3.90;99.90;;;;;;5034556;28;20205;-58
2023/01/22 04:31:04;;;;;;;12.43;9.20;;;3.90;99.90;;;;;;5033401;28;20229;-58
2023/01/22 04:33:31;;;;;;;10.57;8.47;;;3.80;99.90;;;;;;5033547;28;20207;-58
2023/01/22 04:35:58;;;;;;;13.67;9.37;;;3.70;99.90;;;;;;5034292;28;20315;-58
2023/01/22 04:38:26;;;;;;;13.60;9.00;;;3.70;99.90;;;;;;5034280;28;20581;-58
2023/01/22 04:40:53;;;;;;;13.27;9.57;;;3.70;99.90;;;;;;5034301;28;20245;-57
2023/01/22 04:43:19;;;;;;;13.97;10.17;;;3.70;99.90;;;;;;5034446;28;20226;-58
2023/01/22 04:45:46;;;;;;;12.60;9.50;;;3.70;99.90;;;;;;5034187;28;20264;-56
2023/01/22 04:48:13;;;;;;;13.03;9.43;;;3.70;99.90;;;;;;5034674;28;20213;-57
2023/01/22 04:50:39;;;;;;;14.67;10.70;;;3.70;99.90;;;;;;5033752;28;20242;-57
2023/01/22 04:53:06;;;;;;;11.67;9.33;;;3.80;99.90;;;;;;5034363;28;20700;-57
2023/01/22 04:55:34;;;;;;;12.97;9.13;;;3.80;99.90;;;;;;5034070;28;20214;-57
2023/01/22 04:58:01;;;;;;;13.20;9.90;;;3.80;99.90;;;;;;5034023;28;20626;-57
2023/01/22 05:00:29;;;;;;;12.23;9.17;;;3.80;99.90;;;;;;5033825;28;20230;-57
2023/01/22 05:02:57;;;;;;;12.90;9.77;;;3.90;99.90;;;;;;5033793;28;20206;-57
2023/01/22 05:05:25;;;;;;;12.30;9.43;;;4.00;99.90;;;;;;5033737;28;20229;-58
2023/01/22 05:07:51;;;;;;;15.40;9.47;;;4.00;99.90;;;;;;5033600;28;20206;-57
2023/01/22 05:10:18;;;;;;;11.90;9.30;;;4.00;99.90;;;;;;5033397;28;20237;-58
2023/01/22 05:12:46;;;;;;;11.47;8.70;;;3.90;99.90;;;;;;5033504;28;20209;-57
2023/01/22 05:15:13;;;;;;;12.00;9.47;;;3.80;99.90;;;;;;5033344;28;20213;-57
2023/01/22 05:17:40;;;;;;;12.80;9.77;;;3.90;99.90;;;;;;5033559;28;20213;-58
2023/01/22 05:20:08;;;;;;;12.47;9.63;;;3.70;99.90;;;;;;5033169;28;20230;-57
2023/01/22 05:22:35;;;;;;;12.20;9.70;;;3.70;99.90;;;;;;5033141;28;20210;-57
2023/01/22 05:25:01;;;;;;;12.37;9.17;;;3.80;99.90;;;;;;5033175;28;20713;-57
2023/01/22 05:27:28;;;;;;;11.83;9.40;;;3.80;99.90;;;;;;5033402;28;20198;-57
2023/01/22 05:29:56;;;;;;;12.57;9.43;;;3.90;99.90;;;;;;5033249;28;20233;-57
2023/01/22 05:32:23;;;;;;;11.53;9.30;;;3.90;99.90;;;;;;5033308;28;20214;-57
2023/01/22 05:34:50;;;;;;;14.40;10.30;;;4.00;99.90;;;;;;5033420;28;20664;-57
2023/01/22 05:37:17;;;;;;;14.40;10.10;;;4.00;99.90;;;;;;5032999;28;20624;-58
2023/01/22 05:39:44;;;;;;;12.37;9.73;;;4.00;99.90;;;;;;5033507;28;20257;-58
2023/01/22 05:42:14;;;;;;;15.87;10.33;;;4.00;99.90;;;;;;5033492;28;20301;-58
2023/01/22 05:44:41;;;;;;;15.13;10.20;;;3.90;99.90;;;;;;5034091;28;20260;-58
2023/01/22 05:47:09;;;;;;;13.40;9.57;;;3.90;99.90;;;;;;5033643;28;20670;-57
2023/01/22 05:49:36;;;;;;;16.57;11.67;;;3.90;99.90;;;;;;5033560;28;20234;-57
2023/01/22 05:52:03;;;;;;;13.60;10.33;;;3.90;99.90;;;;;;5034021;28;20206;-58
2023/01/22 05:54:30;;;;;;;13.57;10.00;;;3.90;99.90;;;;;;5034037;28;20293;-57
2023/01/22 05:56:57;;;;;;;18.00;10.60;;;3.90;99.90;;;;;;5033506;28;20524;-57
2023/01/22 05:59:23;;;;;;;13.30;9.97;;;3.80;99.90;;;;;;5033455;28;20226;-57
2023/01/22 06:01:50;;;;;;;15.90;11.30;;;3.80;99.90;;;;;;5035785;28;20207;-57
2023/01/22 06:04:18;;;;;;;12.83;10.13;;;3.80;99.90;;;;;;5037233;28;20230;-58
2023/01/22 06:06:45;;;;;;;16.70;11.57;;;3.80;99.90;;;;;;5037263;28;20214;-57
2023/01/22 06:09:12;;;;;;;15.07;11.63;;;3.80;99.90;;;;;;5037432;28;20218;-59
2023/01/22 06:11:39;;;;;;;13.07;9.27;;;3.80;99.90;;;;;;5036465;28;20240;-58
2023/01/22 06:14:06;;;;;;;15.27;10.47;;;3.80;99.90;;;;;;5036756;28;20225;-59
2023/01/22 06:16:33;;;;;;;12.13;9.77;;;3.80;99.90;;;;;;5036868;28;20210;-58
2023/01/22 06:18:59;;;;;;;17.10;12.27;;;3.80;99.90;;;;;;5036481;28;20214;-58
2023/01/22 06:21:27;;;;;;;13.77;10.70;;;3.80;99.90;;;;;;5036305;28;20206;-58
2023/01/22 06:23:54;;;;;;;16.43;11.67;;;3.80;99.90;;;;;;5036411;28;20230;-58
2023/01/22 06:26:21;;;;;;;14.10;11.10;;;3.80;99.90;;;;;;5036549;28;20217;-58
2023/01/22 06:28:48;;;;;;;20.50;13.57;;;3.80;99.90;;;;;;5036821;28;20202;-59
2023/01/22 06:31:15;;;;;;;18.73;12.53;;;3.80;99.90;;;;;;5036460;28;20237;-59
2023/01/22 06:33:41;;;;;;;15.50;11.40;;;3.90;99.90;;;;;;5036563;28;20207;-59
2023/01/22 06:36:09;;;;;;;12.97;10.27;;;3.90;99.90;;;;;;5036092;28;20206;-56
2023/01/22 06:38:38;;;;;;;13.53;10.77;;;3.90;99.90;;;;;;5036701;28;20209;-59
2023/01/22 06:41:05;;;;;;;14.67;10.53;;;3.90;99.90;;;;;;5036636;28;20230;-59
2023/01/22 06:43:32;;;;;;;14.17;11.10;;;3.90;99.90;;;;;;5036988;28;20210;-59
2023/01/22 06:45:58;;;;;;;12.57;10.40;;;3.90;99.90;;;;;;5037525;28;20230;-59
2023/01/22 06:48:25;;;;;;;14.93;11.50;;;3.90;99.90;;;;;;5036981;28;20554;-59
2023/01/22 06:50:57;;;;;;;13.37;10.30;;;4.00;99.90;;;;;;5036405;28;20240;-59
2023/01/22 06:53:24;;;;;;;13.63;11.03;;;3.90;99.90;;;;;;5036887;28;20206;-59
2023/01/22 06:55:52;;;;;;;46.47;27.17;;;3.90;99.90;;;;;;5037240;28;20229;-59
2023/01/22 06:58:19;;;;;;;14.43;11.60;;;3.90;99.90;;;;;;5036423;28;20217;-59
2023/01/22 07:00:46;;;;;;;25.07;16.07;;;3.90;99.90;;;;;;5036778;28;20729;-59
2023/01/22 07:03:13;;;;;;;16.13;12.37;;;3.90;99.90;;;;;;5036843;28;20209;-59
2023/01/22 07:05:40;;;;;;;19.43;13.53;;;4.00;99.90;;;;;;5036642;28;20585;-59
2023/01/22 07:08:07;;;;;;;15.20;11.50;;;3.90;99.90;;;;;;5036402;28;20202;-59
2023/01/22 07:10:34;;;;;;;15.77;11.63;;;4.00;99.90;;;;;;5035623;28;20234;-59
2023/01/22 07:13:03;;;;;;;13.63;10.10;;;4.00;99.90;;;;;;5034587;28;20203;-58
2023/01/22 07:15:29;;;;;;;16.80;11.63;;;4.00;99.90;;;;;;5036025;28;20234;-59
2023/01/22 07:17:56;;;;;;;15.17;11.30;;;4.00;99.90;;;;;;5036127;28;20301;-59
2023/01/22 07:20:23;;;;;;;15.67;11.47;;;4.00;99.90;;;;;;5036012;28;20724;-59
2023/01/22 07:22:50;;;;;;;14.17;11.00;;;4.00;99.90;;;;;;5036690;28;20214;-59
2023/01/22 07:25:18;;;;;;;15.20;11.10;;;4.10;99.90;;;;;;5036395;28;20226;-58
2023/01/22 07:27:45;;;;;;;14.17;11.00;;;4.10;99.90;;;;;;5036245;28;20236;-58
2023/01/22 07:30:14;;;;;;;13.90;11.37;;;4.20;99.90;;;;;;5035907;28;20226;-59
2023/01/22 07:32:41;;;;;;;16.77;12.60;;;4.20;99.90;;;;;;5036059;28;20216;-57
2023/01/22 07:35:08;;;;;;;22.30;14.33;;;4.20;99.90;;;;;;5036030;28;20213;-58
2023/01/22 07:37:36;;;;;;;17.07;12.10;;;4.30;99.90;;;;;;5036462;28;20206;-59
2023/01/22 07:40:04;;;;;;;18.07;11.73;;;4.30;99.90;;;;;;5036020;28;20280;-58
2023/01/22 07:42:31;;;;;;;17.37;12.80;;;4.30;99.90;;;;;;5035530;28;20210;-55
2023/01/22 07:44:58;;;;;;;16.30;11.97;;;4.30;99.90;;;;;;5034027;28;20232;-55
2023/01/22 07:47:26;;;;;;;19.03;13.17;;;4.40;99.90;;;;;;5033820;28;20229;-55
2023/01/22 07:49:53;;;;;;;17.27;12.20;;;4.50;99.90;;;;;;5034119;28;20241;-54
2023/01/22 07:52:19;;;;;;;16.37;11.63;;;4.40;99.90;;;;;;5034101;28;20213;-54
2023/01/22 07:54:46;;;;;;;17.20;12.80;;;4.40;99.90;;;;;;5033592;28;20732;-54
2023/01/22 07:57:15;;;;;;;16.63;12.53;;;4.40;99.90;;;;;;5033790;28;20210;-54
2023/01/22 07:59:42;;;;;;;15.63;11.83;;;4.50;99.90;;;;;;5033534;28;20234;-55
2023/01/22 08:02:12;;;;;;;17.13;12.00;;;4.60;99.90;;;;;;5033337;28;20202;-55
2023/01/22 08:04:41;;;;;;;14.23;10.80;;;4.70;99.90;;;;;;5033426;28;20259;-54
2023/01/22 08:07:15;;;;;;;18.67;13.07;;;4.80;99.90;;;;;;5033390;28;20206;-55
2023/01/22 08:09:44;;;;;;;15.40;11.20;;;4.90;99.90;;;;;;5033682;28;20230;-55
2023/01/22 08:12:11;;;;;;;13.50;10.43;;;4.90;99.90;;;;;;5033084;28;20202;-55
2023/01/22 08:14:37;;;;;;;15.70;11.13;;;4.90;99.90;;;;;;5033126;28;20203;-55
2023/01/22 08:17:04;;;;;;;18.90;11.47;;;4.80;99.90;;;;;;5033654;28;20234;-57
2023/01/22 08:19:31;;;;;;;15.17;11.63;;;4.80;99.90;;;;;;5033015;28;20605;-54
2023/01/22 08:21:59;;;;;;;15.27;11.40;;;4.70;99.90;;;;;;5032836;28;20210;-54
2023/01/22 08:24:26;;;;;;;15.63;11.70;;;4.80;99.90;;;;;;5032786;28;20552;-54
2023/01/22 08:26:55;;;;;;;15.50;11.67;;;4.80;99.90;;;;;;5033328;28;20217;-57
2023/01/22 08:29:22;;;;;;;21.77;14.57;;;4.90;99.90;;;;;;5033480;28;20576;-53
2023/01/22 08:31:49;;;;;;;105.80;78.23;;;5.00;99.90;;;;;;5032659;28;20553;-56
2023/01/22 08:34:15;;;;;;;14.50;12.00;;;4.90;99.90;;;;;;5033073;28;20706;-54
2023/01/22 08:36:42;;;;;;;16.47;12.57;;;4.80;99.90;;;;;;5032946;28;20296;-54
2023/01/22 08:39:12;;;;;;;15.20;10.87;;;4.70;99.90;;;;;;5032689;28;20213;-55
2023/01/22 08:41:39;;;;;;;40.30;23.07;;;4.40;99.90;;;;;;5032554;28;20301;-54
2023/01/22 08:44:06;;;;;;;15.73;11.90;;;4.40;99.90;;;;;;5032981;28;20237;-54
2023/01/22 08:46:34;;;;;;;23.03;15.13;;;4.50;99.90;;;;;;5032737;28;20228;-55
2023/01/22 08:49:03;;;;;;;18.67;12.60;;;4.70;99.90;;;;;;5032783;28;20202;-54
2023/01/22 08:51:30;;;;;;;15.40;11.50;;;5.00;99.90;;;;;;5032183;28;20236;-54
2023/01/22 08:53:56;;;;;;;16.13;11.73;;;5.20;99.90;;;;;;5032765;28;20240;-54
2023/01/22 08:56:25;;;;;;;15.60;10.90;;;5.40;99.90;;;;;;5032485;28;20202;-54
2023/01/22 08:58:52;;;;;;;18.57;11.90;;;5.50;99.90;;;;;;5032425;28;20685;-55
2023/01/22 09:01:20;;;;;;;16.37;12.23;;;5.60;99.90;;;;;;5032490;28;20226;-53
2023/01/22 09:03:47;;;;;;;15.37;11.83;;;5.70;99.90;;;;;;5032430;28;20210;-53
2023/01/22 09:06:14;;;;;;;15.50;11.83;;;5.70;99.90;;;;;;5032408;28;20262;-54
2023/01/22 09:08:41;;;;;;;16.27;11.60;;;5.70;99.90;;;;;;5032295;28;20214;-53
2023/01/22 09:11:08;;;;;;;18.53;13.10;;;5.70;99.90;;;;;;5032374;28;20238;-53
2023/01/22 09:13:36;;;;;;;20.50;15.33;;;5.70;99.90;;;;;;5032334;28;20205;-53
2023/01/22 09:16:04;;;;;;;16.50;12.90;;;5.70;99.90;;;;;;5032738;28;20238;-53
2023/01/22 09:18:31;;;;;;;15.27;11.63;;;5.80;99.90;;;;;;5032895;28;20210;-53
2023/01/22 09:20:58;;;;;;;19.03;12.03;;;5.90;99.90;;;;;;5032740;28;20233;-55
2023/01/22 09:23:25;;;;;;;14.90;11.73;;;6.00;99.90;;;;;;5033687;28;20298;-53
2023/01/22 09:25:52;;;;;;;16.90;11.97;;;5.90;99.90;;;;;;5032919;28;20225;-55
2023/01/22 09:28:18;;;;;;;13.47;11.13;;;5.90;99.90;;;;;;5032954;28;20206;-54
2023/01/22 09:30:46;;;;;;;15.57;12.30;;;6.00;99.90;;;;;;5033111;28;20233;-53
2023/01/22 09:33:13;;;;;;;14.20;11.13;;;6.20;99.90;;;;;;5033222;28;20695;-54
2023/01/22 09:35:40;;;;;;;17.50;12.97;;;6.40;99.90;;;;;;5034319;28;20198;-54
2023/01/22 09:38:07;;;;;;;15.80;11.80;;;6.60;99.90;;;;;;5037556;28;20212;-54
2023/01/22 09:40:40;;;;;;;15.77;12.07;;;6.10;99.90;;;;;;5037415;28;20229;-54
2023/01/22 09:43:18;;;;;;;19.60;12.60;;;5.60;99.90;;;;;;5037614;28;20209;-54
2023/01/22 09:45:48;;;;;;;16.13;12.73;;;5.30;99.90;;;;;;5037549;28;20225;-54
2023/01/22 09:48:18;;;;;;;17.60;12.80;;;5.20;99.90;;;;;;5037828;28;20216;-53
2023/01/22 09:50:46;;;;;;;17.10;12.20;;;5.00;99.90;;;;;;5037704;28;20257;-53
2023/01/22 09:53:17;;;;;;;15.47;11.53;;;4.80;99.90;;;;;;5038173;28;20213;-53
2023/01/22 09:55:46;;;;;;;17.90;12.90;;;4.80;99.90;;;;;;5037927;28;20205;-54
2023/01/22 09:58:15;;;;;;;17.57;13.00;;;4.90;99.90;;;;;;5037932;28;20218;-54
2023/01/22 10:00:46;;;;;;;16.97;12.47;;;4.90;99.90;;;;;;5037915;28;20226;-53
2023/01/22 10:03:22;;;;;;;16.27;12.47;;;5.20;99.90;;;;;;5037560;28;20210;-54
2023/01/22 10:05:52;;;;;;;17.03;12.50;;;5.50;99.90;;;;;;5037284;28;20225;-53
2023/01/22 10:08:21;;;;;;;17.03;12.50;;;5.70;99.90;;;;;;5037114;28;20210;-54
2023/01/22 10:10:49;;;;;;;17.80;12.47;;;5.50;99.90;;;;;;5036784;28;20226;-54
2023/01/22 10:13:20;;;;;;;101.20;71.70;;;5.40;99.90;;;;;;5037048;28;20221;-53
2023/01/22 10:15:48;;;;;;;16.17;12.77;;;5.30;99.90;;;;;;5037144;28;20212;-55
2023/01/22 10:18:29;;;;;;;15.80;12.37;;;5.40;99.90;;;;;;5036735;28;20242;-54
2023/01/22 10:20:58;;;;;;;15.53;12.07;;;5.60;99.90;;;;;;5036895;28;20643;-55
2023/01/22 10:23:26;;;;;;;15.20;11.70;;;6.00;99.90;;;;;;5036525;28;20241;-55
2023/01/22 10:25:56;;;;;;;16.40;11.57;;;6.10;99.90;;;;;;5036582;28;20237;-55
2023/01/22 10:28:26;;;;;;;13.97;10.90;;;6.00;99.90;;;;;;5037238;28;20206;-54
2023/01/22 10:30:57;;;;;;;14.70;11.23;;;6.10;99.90;;;;;;5036715;28;20249;-54
2023/01/22 10:33:27;;;;;;;13.07;10.87;;;6.30;99.90;;;;;;5036522;28;20300;-55
2023/01/22 10:35:56;;;;;;;15.27;11.30;;;6.10;99.90;;;;;;5036358;28;20260;-54
2023/01/22 10:38:26;;;;;;;14.47;11.37;;;5.80;99.90;;;;;;5036341;28;20264;-54
2023/01/22 10:40:55;;;;;;;14.63;11.63;;;5.70;99.90;;;;;;5036697;28;20637;-54
2023/01/22 10:43:29;;;;;;;16.60;11.63;;;5.90;99.90;;;;;;5036403;28;20210;-54
2023/01/22 10:45:58;;;;;;;14.77;11.80;;;6.20;99.90;;;;;;5035630;28;20612;-54
2023/01/22 10:48:27;;;;;;;14.73;11.40;;;6.50;99.90;;;;;;5035786;28;20604;-54
2023/01/22 10:51:07;;;;;;;14.37;11.53;;;6.80;99.90;;;;;;5035297;28;20241;-54
2023/01/22 10:53:36;;;;;;;15.97;12.03;;;7.00;99.90;;;;;;5035273;28;20225;-55
2023/01/22 10:56:06;;;;;;;16.77;12.50;;;7.20;99.90;;;;;;5035359;28;20210;-56
2023/01/22 10:58:36;;;;;;;14.87;11.93;;;7.20;99.90;;;;;;5035416;28;20206;-54
2023/01/22 11:01:05;;;;;;;14.37;10.70;;;7.20;99.90;;;;;;5035185;28;20304;-56
2023/01/22 11:03:36;;;;;;;14.33;11.50;;;7.30;99.90;;;;;;5035584;28;20214;-55
2023/01/22 11:06:16;;;;;;;17.07;12.30;;;7.40;99.90;;;;;;5035213;28;20608;-55
2023/01/22 11:08:51;;;;;;;15.37;11.40;;;7.50;99.90;;;;;;5035282;28;20206;-55
2023/01/22 11:11:23;;;;;;;13.27;10.47;;;7.50;99.90;;;;;;5034904;28;20317;-54
2023/01/22 11:13:54;;;;;;;15.23;10.70;;;6.80;99.90;;;;;;5035592;28;20213;-57
2023/01/22 11:16:23;;;;;;;128.33;111.03;;;6.60;99.90;;;;;;5031553;28;20444;-58
2023/01/22 11:18:57;;;;;;;15.37;11.97;;;6.80;99.90;;;;;;5034100;28;20280;-59
2023/01/22 11:21:28;;;;;;;15.20;11.20;;;7.10;99.90;;;;;;5034111;28;20260;-58
2023/01/22 11:24:00;;;;;;;16.90;11.63;;;7.40;99.90;;;;;;5033958;28;20211;-58
2023/01/22 11:26:40;;;;;;;14.17;11.27;;;7.40;99.90;;;;;;5033709;28;20226;-58
2023/01/22 11:29:20;;;;;;;17.87;12.13;;;7.40;99.90;;;;;;5033295;28;20216;-60
2023/01/22 11:32:00;;;;;;;14.67;11.13;;;7.40;99.90;;;;;;5033438;28;20217;-59
2023/01/22 11:34:49;;;;;;;14.20;11.60;;;7.50;99.90;;;;;;5033696;28;20590;-61
2023/01/22 11:37:19;;;;;;;15.47;11.80;;;7.10;99.90;;;;;;5034031;28;20674;-59
2023/01/22 11:40:02;;;;;;;13.57;10.90;;;7.10;99.90;;;;;;5033735;28;20262;-59
2023/01/22 11:42:43;;;;;;;13.57;10.53;;;7.20;99.90;;;;;;5033670;28;20217;-60
2023/01/22 11:45:27;;;;;;;15.53;11.93;;;7.30;99.90;;;;;;5033468;28;20206;-60
2023/01/22 11:48:06;;;;;;;15.67;11.77;;;7.10;99.90;;;;;;5034320;28;20202;-64
2023/01/22 11:50:42;;;;;;;14.57;11.33;;;7.00;99.90;;;;;;5034887;28;20315;-61
2023/01/22 11:53:33;;;;;;;13.97;10.47;;;7.10;99.90;;;;;;5034248;28;20205;-57
2023/01/22 11:56:14;;;;;;;12.77;9.80;;;6.80;99.90;;;;;;5034550;28;20685;-60
2023/01/22 11:58:49;;;;;;;14.80;10.53;;;6.30;99.90;;;;;;5034186;28;20217;-57
2023/01/22 12:01:27;;;;;;;15.87;10.63;;;6.20;99.90;;;;;;5034457;28;20576;-59
2023/01/22 12:04:22;;;;;;;13.67;10.37;;;6.40;99.90;;;;;;5034601;28;20229;-61
2023/01/22 12:07:12;;;;;;;12.83;10.37;;;6.40;99.90;;;;;;5028844;28;20230;-61
2023/01/22 12:09:47;;;;;;;13.50;9.60;;;6.10;99.90;;;;;;5035290;28;20234;-60
2023/01/22 12:12:27;;;;;;;12.43;9.80;;;6.10;99.90;;;;;;5033096;28;20248;-59
2023/01/22 12:15:19;;;;;;;13.93;10.03;;;6.30;99.90;;;;;;5034714;28;20648;-62
2023/01/22 12:17:57;;;;;;;13.63;10.33;;;6.60;99.90;;;;;;5033839;28;20214;-60
2023/01/22 12:20:46;;;;;;;13.07;10.37;;;6.70;99.90;;;;;;5032419;28;20237;-60
2023/01/22 12:23:21;;;;;;;15.23;11.70;;;6.70;99.90;;;;;;5034013;28;20305;-62
2023/01/22 12:25:53;;;;;;;13.83;10.50;;;6.60;99.90;;;;;;5033892;28;20678;-62
2023/01/22 12:28:28;;;;;;;12.13;9.90;;;6.60;99.90;;;;;;5035400;28;20216;-61
2023/01/22 12:31:00;;;;;;;12.33;9.90;;;6.70;99.90;;;;;;5032755;28;20221;-58
2023/01/22 12:33:30;;;;;;;13.60;10.33;;;6.70;99.90;;;;;;5033100;28;20207;-59
2023/01/22 12:36:00;;;;;;;15.97;11.10;;;6.80;99.90;;;;;;5032267;28;20202;-58
2023/01/22 12:38:49;;;;;;;75.43;57.27;;;7.00;99.90;;;;;;5032456;28;20202;-58
2023/01/22 12:41:29;;;;;;;19.13;14.47;;;7.10;99.90;;;;;;5032465;28;20242;-58
2023/01/22 12:43:58;;;;;;;20.27;13.87;;;7.20;99.90;;;;;;5032104;28;20245;-58
2023/01/22 12:46:35;;;;;;;13.50;10.10;;;7.40;99.90;;;;;;5032457;28;20596;-58
2023/01/22 12:49:06;;;;;;;14.03;10.57;;;7.50;99.90;;;;;;5031830;28;20206;-58
2023/01/22 12:51:40;;;;;;;14.80;10.07;;;7.40;99.90;;;;;;5032015;28;20210;-58
2023/01/22 12:54:31;;;;;;;11.10;9.67;;;7.40;99.90;;;;;;5032541;28;20252;-57
2023/01/22 12:57:11;;;;;;;12.83;9.60;;;7.40;99.90;;;;;;5032119;28;20242;-58